Time;durP1;ratioP1;P1;durP2;ratioP2;P2;SDS_P1;SDS_P2;PMS_P1;PMS_P2;Temp;Humidity;BMP_temperature;BMP_pressure;BME280_temperature;BME280_humidity;BME280_pressure;Samples;Min_cycle;Max_cycle;Signal;HPM_P1;HPM_P2
2022/08/02 00:00:44;;;;;;;2.90;1.45;;;;;;;16.03;69.26;93329.38;5031283;28;20029;-51
2022/08/02 00:03:09;;;;;;;3.97;3.78;;;;;;;16.05;68.71;93329.50;5030525;28;20037;-50
2022/08/02 00:05:35;;;;;;;2.17;1.60;;;;;;;16.11;68.64;93318.81;5030218;28;20164;-45
2022/08/02 00:08:00;;;;;;;1.73;1.60;;;;;;;16.03;69.21;93326.59;5031222;28;20045;-47
2022/08/02 00:10:26;;;;;;;2.40;2.22;;;;;;;16.06;68.75;93319.84;5030422;28;20025;-47
2022/08/02 00:12:52;;;;;;;3.45;3.25;;;;;;;15.89;69.16;93325.59;5030467;28;20018;-47
2022/08/02 00:15:18;;;;;;;9.75;9.25;;;;;;;15.78;69.02;93328.94;5030567;28;20029;-44
2022/08/02 00:17:43;;;;;;;4.32;3.95;;;;;;;15.78;68.85;93337.31;5030144;28;20052;-45
2022/08/02 00:20:10;;;;;;;1.75;1.63;;;;;;;15.84;68.84;93324.56;5023479;28;20029;-45
2022/08/02 00:22:36;;;;;;;1.55;1.45;;;;;;;15.78;68.48;93323.38;5019415;28;20053;-46
2022/08/02 00:25:02;;;;;;;1.70;1.52;;;;;;;15.81;68.19;93328.50;5017023;28;20499;-43
2022/08/02 00:27:27;;;;;;;2.90;1.77;;;;;;;15.75;68.20;93324.53;5031106;28;20033;-44
2022/08/02 00:29:54;;;;;;;1.77;1.65;;;;;;;15.74;68.42;93323.81;5031850;28;20028;-44
2022/08/02 00:32:20;;;;;;;2.55;1.58;;;;;;;15.60;68.85;93328.34;5031862;28;20026;-45
2022/08/02 00:34:46;;;;;;;1.95;1.70;;;;;;;15.58;69.45;93327.47;5031450;28;20053;-44
2022/08/02 00:37:11;;;;;;;2.90;1.67;;;;;;;15.53;69.15;93331.25;5031666;28;20061;-47
2022/08/02 00:39:37;;;;;;;1.92;1.70;;;;;;;15.62;68.68;93336.09;5031588;28;20403;-48
2022/08/02 00:42:02;;;;;;;1.30;1.20;;;;;;;15.59;68.73;93332.44;5030692;28;20458;-48
2022/08/02 00:44:28;;;;;;;1.48;1.38;;;;;;;15.66;68.14;93333.63;5031338;28;20491;-47
2022/08/02 00:46:53;;;;;;;3.13;2.03;;;;;;;15.31;68.61;93315.69;5031486;28;20037;-48
2022/08/02 00:49:19;;;;;;;2.30;1.63;;;;;;;15.43;68.49;93330.50;5031160;28;20418;-47
2022/08/02 00:51:44;;;;;;;1.65;1.55;;;;;;;15.23;68.56;93313.03;5031204;28;20022;-49
2022/08/02 00:54:10;;;;;;;2.08;1.60;;;;;;;15.33;68.39;93326.97;5030702;28;20018;-47
2022/08/02 00:56:35;;;;;;;3.28;1.70;;;;;;;15.18;68.93;93331.47;5029432;28;20049;-49
2022/08/02 00:59:01;;;;;;;1.70;1.60;;;;;;;15.06;69.19;93327.78;5028551;28;20017;-47
2022/08/02 01:01:59;;;;;;;2.47;1.73;;;;;;;15.22;68.62;93325.50;5029660;28;20077;-47
2022/08/02 01:04:18;;;;;;;3.30;1.88;;;;;;;14.99;69.19;93336.22;5027453;28;20470;-48
2022/08/02 01:06:43;;;;;;;1.92;1.73;;;;;;;14.66;70.35;93333.03;5030466;28;20021;-48
2022/08/02 01:09:09;;;;;;;1.70;1.60;;;;;;;14.49;71.62;93329.59;5029455;28;20483;-48
2022/08/02 01:11:35;;;;;;;2.33;1.70;;;;;;;14.71;70.56;93322.97;5029226;28;20118;-52
2022/08/02 01:14:07;;;;;;;2.60;1.63;;;;;;;14.74;70.82;93328.13;5029352;28;20026;-47
2022/08/02 01:16:38;;;;;;;1.73;1.63;;;;;;;14.65;70.61;93328.81;5027680;28;20033;-46
2022/08/02 01:19:24;;;;;;;1.75;1.65;;;;;;;14.56;70.40;93325.97;5028928;28;20027;-47
2022/08/02 01:22:19;;;;;;;6.35;1.95;;;;;;;14.54;70.24;93323.78;5021887;28;20034;-48
2022/08/02 01:24:47;;;;;;;2.47;1.70;;;;;;;14.52;70.61;93318.06;5004150;28;20041;-48
2022/08/02 01:27:56;;;;;;;3.13;1.97;;;;;;;14.55;70.99;93316.91;5030476;28;20040;-48
2022/08/02 01:30:21;;;;;;;3.38;1.70;;;;;;;14.56;70.51;93320.41;4986287;28;20483;-47
2022/08/02 01:32:51;;;;;;;1.77;1.67;;;;;;;14.58;70.15;93321.31;5011013;28;20422;-46
2022/08/02 01:35:22;;;;;;;3.33;1.90;;;;;;;14.73;69.15;93323.84;5010686;28;20069;-49
2022/08/02 01:37:56;;;;;;;2.95;1.75;;;;;;;14.41;69.62;93324.16;5009016;28;20022;-46
2022/08/02 01:40:27;;;;;;;1.50;1.40;;;;;;;14.44;68.99;93317.44;5009828;28;20034;-47
2022/08/02 01:42:53;;;;;;;4.97;1.65;;;;;;;14.63;68.72;93322.34;5008112;28;20057;-46
2022/08/02 01:45:20;;;;;;;1.52;1.42;;;;;;;14.46;69.60;93325.19;5023677;28;20059;-45
2022/08/02 01:47:46;;;;;;;2.90;1.50;;;;;;;14.51;69.93;93324.22;5029047;28;20022;-46
2022/08/02 01:50:15;;;;;;;1.50;1.40;;;;;;;14.47;69.48;93324.59;5028483;28;20120;-48
2022/08/02 01:52:48;;;;;;;1.48;1.38;;;;;;;14.47;69.09;93319.06;5029128;28;20029;-47
2022/08/02 01:55:26;;;;;;;2.00;1.50;;;;;;;14.24;69.49;93313.81;5028266;28;20109;-46
2022/08/02 01:57:56;;;;;;;1.50;1.40;;;;;;;14.16;69.41;93310.38;5030135;28;20052;-47
2022/08/02 02:00:24;;;;;;;1.60;1.50;;;;;;;14.12;69.18;93318.41;5028363;28;20033;-48
2022/08/02 02:02:51;;;;;;;2.08;1.33;;;;;;;14.17;69.11;93311.84;5032503;28;20615;-48
2022/08/02 02:05:19;;;;;;;2.28;1.27;;;;;;;14.24;69.41;93324.16;5030253;28;20100;-47
2022/08/02 02:07:47;;;;;;;3.13;1.80;;;;;;;14.00;70.02;93317.44;5045056;28;20018;-47
2022/08/02 02:10:15;;;;;;;1.63;1.52;;;;;;;14.09;70.13;93316.78;5024743;28;20025;-47
2022/08/02 02:12:41;;;;;;;2.13;1.60;;;;;;;13.88;70.42;93313.00;5028143;28;20064;-47
2022/08/02 02:15:09;;;;;;;1.70;1.60;;;;;;;13.83;70.87;93313.97;5027774;28;20026;-46
2022/08/02 02:17:35;;;;;;;1.70;1.60;;;;;;;13.77;70.87;93310.72;5028612;28;20087;-44
2022/08/02 02:20:02;;;;;;;3.70;1.58;;;;;;;13.80;70.42;93309.53;5029961;28;20457;-44
2022/08/02 02:22:27;;;;;;;2.40;1.65;;;;;;;13.85;69.75;93308.56;5028086;28;20525;-44
2022/08/02 02:24:54;;;;;;;2.00;1.80;;;;;;;13.65;70.72;93304.91;5029166;28;20037;-44
2022/08/02 02:27:22;;;;;;;2.25;1.70;;;;;;;13.63;70.83;93316.59;5028026;28;20018;-44
2022/08/02 02:29:50;;;;;;;1.67;1.58;;;;;;;13.55;71.40;93315.22;5027638;28;20418;-44
2022/08/02 02:32:16;;;;;;;2.42;1.77;;;;;;;13.66;70.74;93307.13;5028577;28;20038;-45
2022/08/02 02:34:43;;;;;;;1.17;1.13;;;;;;;13.45;70.90;93315.13;5027029;28;20044;-45
2022/08/02 02:37:13;;;;;;;1.50;1.40;;;;;;;13.53;70.65;93315.78;5026817;28;20045;-46
2022/08/02 02:39:41;;;;;;;1.92;1.73;;;;;;;13.59;70.39;93312.75;5026814;28;20529;-44
2022/08/02 02:42:08;;;;;;;4.25;1.60;;;;;;;13.55;70.27;93313.19;5025095;28;20514;-47
2022/08/02 02:44:34;;;;;;;6.60;1.60;;;;;;;13.52;70.40;93311.53;5027821;28;20075;-46
2022/08/02 02:47:01;;;;;;;2.08;1.75;;;;;;;13.32;70.86;93315.44;5012410;28;20057;-46
2022/08/02 02:49:27;;;;;;;5.82;2.00;;;;;;;13.29;70.99;93313.09;5006563;28;20065;-47
2022/08/02 02:51:53;;;;;;;2.92;1.77;;;;;;;13.24;71.36;93320.34;5010265;28;20057;-46
2022/08/02 02:54:19;;;;;;;1.98;1.80;;;;;;;13.21;71.91;93320.75;5010013;28;20030;-44
2022/08/02 02:56:44;;;;;;;1.85;1.75;;;;;;;13.33;71.20;93308.59;5021609;28;20033;-45
2022/08/02 02:59:12;;;;;;;1.70;1.60;;;;;;;13.36;70.95;93312.28;5030618;28;20450;-46
2022/08/02 03:01:38;;;;;;;1.77;1.67;;;;;;;13.41;70.84;93317.56;5031569;28;20057;-45
2022/08/02 03:04:06;;;;;;;11.98;11.25;;;;;;;13.06;71.44;93293.88;5045840;28;20472;-47
2022/08/02 03:06:32;;;;;;;4.95;2.40;;;;;;;13.15;71.16;93295.28;5051099;28;20414;-46
2022/08/02 03:08:58;;;;;;;1.67;1.50;;;;;;;13.32;71.66;93318.22;5037169;28;20029;-46
2022/08/02 03:11:28;;;;;;;4.45;4.22;;;;;;;13.33;71.11;93314.16;5033075;28;20025;-46
2022/08/02 03:13:58;;;;;;;1.92;1.50;;;;;;;13.35;70.68;93324.66;5031555;28;20576;-46
2022/08/02 03:16:25;;;;;;;6.15;3.28;;;;;;;13.16;71.26;93319.69;5032843;28;20061;-45
2022/08/02 03:18:50;;;;;;;2.85;2.17;;;;;;;13.12;71.42;93322.13;5032058;28;20080;-46
2022/08/02 03:21:16;;;;;;;1.85;1.75;;;;;;;13.03;70.65;93305.34;5033061;28;20041;-46
2022/08/02 03:23:42;;;;;;;4.93;1.65;;;;;;;13.10;71.19;93321.97;5021237;28;20025;-47
2022/08/02 03:26:08;;;;;;;2.45;1.42;;;;;;;13.03;71.33;93328.28;5013410;28;20026;-46
2022/08/02 03:28:34;;;;;;;4.53;1.60;;;;;;;13.16;70.79;93324.47;5032310;28;20516;-47
2022/08/02 03:31:00;;;;;;;1.75;1.63;;;;;;;13.38;69.73;93320.75;5032616;28;20061;-46
2022/08/02 03:33:27;;;;;;;1.50;1.38;;;;;;;13.43;69.50;93322.53;5032468;28;20039;-45
2022/08/02 03:35:54;;;;;;;2.42;2.30;;;;;;;13.29;69.68;93321.41;5032479;28;20027;-45
2022/08/02 03:38:21;;;;;;;14.82;12.35;;;;;;;13.29;70.09;93324.91;5030564;28;20029;-45
2022/08/02 03:40:47;;;;;;;6.30;1.85;;;;;;;13.07;70.27;93325.84;5032129;28;20414;-45
2022/08/02 03:43:13;;;;;;;1.92;1.63;;;;;;;12.97;70.64;93329.81;5030231;28;20398;-46
2022/08/02 03:45:41;;;;;;;1.70;1.60;;;;;;;12.88;71.40;93326.38;5062450;28;20048;-49
2022/08/02 03:48:07;;;;;;;2.83;1.73;;;;;;;12.82;71.74;93325.13;5032757;28;20032;-45
2022/08/02 03:50:33;;;;;;;1.63;1.52;;;;;;;12.97;70.85;93329.81;5032402;28;20414;-45
2022/08/02 03:52:59;;;;;;;2.03;1.83;;;;;;;13.09;70.24;93337.09;5031344;28;20029;-46
2022/08/02 03:55:25;;;;;;;4.13;2.05;;;;;;;12.87;71.45;93338.75;5030962;28;20812;-46
2022/08/02 03:57:50;;;;;;;2.03;1.92;;;;;;;13.05;70.58;93339.56;5032296;28;20034;-46
2022/08/02 04:00:18;;;;;;;2.42;2.03;;;;;;;13.23;70.12;93340.31;5031563;28;20091;-48
2022/08/02 04:02:44;;;;;;;1.83;1.70;;;;;;;13.00;71.36;93339.75;5031773;28;20045;-45
2022/08/02 04:05:10;;;;;;;2.17;1.75;;;;;;;13.09;70.48;93341.91;5031956;28;20109;-45
2022/08/02 04:07:35;;;;;;;1.55;1.45;;;;;;;13.19;70.53;93342.75;5032246;28;20025;-47
2022/08/02 04:10:02;;;;;;;1.65;1.55;;;;;;;12.98;70.86;93325.72;5032075;28;20025;-46
2022/08/02 04:12:28;;;;;;;2.42;1.77;;;;;;;12.94;72.06;93348.28;5031814;28;20025;-52
2022/08/02 04:14:53;;;;;;;1.92;1.75;;;;;;;12.75;73.09;93348.09;5031948;28;20032;-47
2022/08/02 04:17:20;;;;;;;1.60;1.50;;;;;;;12.87;73.15;93351.84;5030841;28;20116;-47
2022/08/02 04:20:00;;;;;;;2.47;1.70;;;;;;;13.05;72.19;93355.44;5029649;28;20604;-47
2022/08/02 04:22:30;;;;;;;2.75;1.70;;;;;;;12.88;72.76;93347.78;5027299;28;20052;-46
2022/08/02 04:25:00;;;;;;;1.90;1.75;;;;;;;13.04;72.71;93348.41;5030168;28;20068;-47
2022/08/02 04:27:26;;;;;;;2.85;1.90;;;;;;;13.06;73.12;93354.16;5031811;28;20137;-49
2022/08/02 04:29:52;;;;;;;4.72;4.47;;;;;;;13.15;73.13;93348.69;5031601;28;20526;-49
2022/08/02 04:32:18;;;;;;;4.65;2.05;;;;;;;13.30;73.08;93356.88;5030230;28;20037;-48
2022/08/02 04:34:44;;;;;;;2.00;1.90;;;;;;;13.31;72.15;93338.94;5030658;28;20104;-47
2022/08/02 04:37:11;;;;;;;2.45;2.25;;;;;;;13.50;72.60;93346.69;5030518;28;20435;-48
2022/08/02 04:39:37;;;;;;;3.20;2.50;;;;;;;13.53;73.08;93342.78;5031354;28;20052;-49
2022/08/02 04:42:02;;;;;;;4.38;2.47;;;;;;;13.54;73.30;93342.22;5031652;28;20030;-47
2022/08/02 04:44:28;;;;;;;1.98;1.88;;;;;;;13.54;73.59;93333.88;5031314;28;20036;-50
2022/08/02 04:46:54;;;;;;;5.40;2.28;;;;;;;13.85;73.38;93339.09;5031554;28;20025;-51
2022/08/02 04:49:20;;;;;;;5.18;2.33;;;;;;;13.93;73.98;93348.81;5031455;28;20422;-48
2022/08/02 04:51:45;;;;;;;5.32;3.17;;;;;;;13.89;74.75;93348.47;5031152;28;20064;-48
2022/08/02 04:54:11;;;;;;;8.90;2.92;;;;;;;14.04;74.52;93353.84;5031515;28;20025;-50
2022/08/02 04:56:37;;;;;;;2.92;2.20;;;;;;;14.02;74.50;93353.69;5030589;28;20036;-46
2022/08/02 04:59:03;;;;;;;3.05;2.30;;;;;;;13.94;75.68;93355.09;5031040;28;20074;-50
2022/08/02 05:01:28;;;;;;;2.75;2.55;;;;;;;14.10;75.39;93351.56;5030817;28;20041;-48
2022/08/02 05:03:54;;;;;;;2.83;2.40;;;;;;;14.13;75.80;93355.22;5031249;28;20060;-47
2022/08/02 05:06:19;;;;;;;4.50;3.10;;;;;;;14.41;75.44;93355.44;5030968;28;20076;-49
2022/08/02 05:08:46;;;;;;;3.17;2.53;;;;;;;14.37;75.34;93346.06;5016509;28;20044;-47
2022/08/02 05:11:12;;;;;;;2.60;2.40;;;;;;;14.52;75.64;93361.78;5010927;28;20034;-51
2022/08/02 05:13:37;;;;;;;4.22;2.30;;;;;;;14.65;75.13;93364.94;5017768;28;20525;-47
2022/08/02 05:16:03;;;;;;;3.33;2.40;;;;;;;14.72;74.61;93368.91;5029522;28;20407;-46
2022/08/02 05:18:29;;;;;;;2.42;2.22;;;;;;;14.81;75.18;93363.38;5030275;28;20028;-46
2022/08/02 05:20:55;;;;;;;4.03;2.45;;;;;;;14.97;75.70;93364.63;5030047;28;20538;-50
2022/08/02 05:23:21;;;;;;;13.77;8.32;;;;;;;15.13;74.63;93363.09;5030063;28;20025;-47
2022/08/02 05:25:46;;;;;;;7.93;2.42;;;;;;;15.15;74.63;93365.28;5030491;28;20071;-47
2022/08/02 05:28:12;;;;;;;3.50;2.72;;;;;;;15.17;74.92;93355.03;5030720;28;20021;-46
2022/08/02 05:30:38;;;;;;;3.17;2.05;;;;;;;15.27;75.00;93368.25;5030350;28;20399;-48
2022/08/02 05:33:04;;;;;;;2.53;2.33;;;;;;;15.35;75.16;93366.06;5029734;28;20120;-47
2022/08/02 05:35:30;;;;;;;2.50;2.30;;;;;;;15.45;75.31;93361.28;5030643;28;20096;-47
2022/08/02 05:37:55;;;;;;;2.03;1.83;;;;;;;15.57;75.00;93368.47;5013962;28;20542;-47
2022/08/02 05:40:21;;;;;;;11.13;2.70;;;;;;;15.77;74.95;93369.97;5020150;28;20021;-47
2022/08/02 05:42:46;;;;;;;2.22;2.00;;;;;;;15.88;74.75;93372.19;5027642;28;20034;-46
2022/08/02 05:45:12;;;;;;;2.33;1.85;;;;;;;16.09;74.62;93368.78;5024233;28;20025;-47
2022/08/02 05:47:38;;;;;;;1.95;1.77;;;;;;;16.19;73.89;93366.00;5028012;28;20482;-51
2022/08/02 05:50:08;;;;;;;4.50;1.88;;;;;;;16.25;73.05;93369.22;5029225;28;20400;-47
2022/08/02 05:52:36;;;;;;;2.85;2.20;;;;;;;16.35;73.17;93367.19;5028600;28;20025;-48
2022/08/02 05:55:27;;;;;;;3.13;1.93;;;;;;;16.44;72.22;93374.78;5028256;28;20825;-47
2022/08/02 05:58:02;;;;;;;3.13;1.50;;;;;;;16.56;71.45;93373.63;5010660;28;20064;-45
2022/08/02 06:00:34;;;;;;;3.63;1.80;;;;;;;16.65;71.25;93377.72;5022673;28;20108;-46
2022/08/02 06:03:23;;;;;;;3.40;1.85;;;;;;;16.71;72.06;93378.13;5007589;28;20042;-46
2022/08/02 06:05:59;;;;;;;5.75;2.13;;;;;;;16.80;68.99;93382.97;5025116;28;20422;-47
2022/08/02 06:08:50;;;;;;;2.95;1.70;;;;;;;16.96;67.22;93380.53;5028007;28;20059;-50
2022/08/02 06:11:17;;;;;;;1.92;1.80;;;;;;;17.03;67.04;93383.16;5027901;28;20076;-47
2022/08/02 06:13:43;;;;;;;1.95;1.70;;;;;;;17.16;66.89;93387.53;5015774;28;20475;-48
2022/08/02 06:16:09;;;;;;;4.50;2.03;;;;;;;17.22;67.60;93387.94;5028082;28;20045;-48
2022/08/02 06:18:36;;;;;;;2.35;1.98;;;;;;;17.28;67.13;93389.06;5028963;28;20059;-49
2022/08/02 06:21:03;;;;;;;2.08;1.60;;;;;;;17.30;67.29;93385.72;5029478;28;20025;-49
2022/08/02 06:23:29;;;;;;;1.95;1.85;;;;;;;17.37;65.63;93365.22;5029539;28;20053;-49
2022/08/02 06:25:58;;;;;;;1.70;1.60;;;;;;;17.55;65.54;93380.47;5033747;28;20073;-48
2022/08/02 06:28:25;;;;;;;10.25;2.10;;;;;;;17.72;65.26;93379.47;5033920;28;20048;-47
2022/08/02 06:30:51;;;;;;;2.20;2.00;;;;;;;17.81;65.35;93379.41;5033434;28;20635;-48
2022/08/02 06:33:16;;;;;;;2.83;1.90;;;;;;;18.00;63.50;93379.28;5032124;28;20026;-48
2022/08/02 06:35:50;;;;;;;1.50;1.40;;;;;;;18.05;64.14;93378.22;5032170;28;20017;-46
2022/08/02 06:38:23;;;;;;;3.20;1.38;;;;;;;18.10;63.49;93368.75;5032320;28;20025;-48
2022/08/02 06:41:00;;;;;;;2.25;1.88;;;;;;;18.39;62.00;93390.13;5032654;28;20030;-45
2022/08/02 06:44:01;;;;;;;1.42;1.30;;;;;;;18.44;60.02;93389.06;5031444;28;20043;-47
2022/08/02 06:46:26;;;;;;;1.55;1.17;;;;;;;18.69;59.39;93386.53;5031603;28;20430;-46
2022/08/02 06:48:52;;;;;;;1.65;1.50;;;;;;;18.79;59.81;93384.34;5032023;28;20040;-46
2022/08/02 06:51:18;;;;;;;1.50;1.17;;;;;;;18.96;59.41;93391.69;5033345;28;20086;-46
2022/08/02 06:53:43;;;;;;;1.23;1.08;;;;;;;19.02;59.59;93395.59;5033377;28;20022;-52
2022/08/02 06:56:09;;;;;;;1.35;1.25;;;;;;;19.13;58.49;93392.06;5030946;28;20072;-48
2022/08/02 06:58:35;;;;;;;1.65;1.55;;;;;;;19.28;58.68;93396.47;5030413;28;20026;-47
2022/08/02 07:01:00;;;;;;;2.50;1.55;;;;;;;19.26;58.42;93385.88;5030855;28;20386;-46
2022/08/02 07:03:26;;;;;;;3.08;1.30;;;;;;;19.34;57.59;93389.19;5032566;28;20029;-45
2022/08/02 07:05:51;;;;;;;4.80;1.60;;;;;;;19.29;58.43;93372.75;5031930;28;20029;-47
2022/08/02 07:08:17;;;;;;;2.40;1.55;;;;;;;19.62;56.88;93385.28;5031185;28;20032;-47
2022/08/02 07:10:43;;;;;;;1.33;1.20;;;;;;;19.74;57.07;93384.56;5031050;28;20033;-47
2022/08/02 07:13:09;;;;;;;1.80;1.40;;;;;;;19.52;56.10;93356.69;5030759;28;20026;-51
2022/08/02 07:15:35;;;;;;;2.80;1.20;;;;;;;19.86;56.96;93386.00;5028730;28;20029;-48
2022/08/02 07:18:01;;;;;;;1.65;1.30;;;;;;;19.92;56.92;93382.81;5028601;28;20421;-51
2022/08/02 07:20:27;;;;;;;4.65;1.65;;;;;;;20.12;55.64;93378.41;5029768;28;20022;-48
2022/08/02 07:22:52;;;;;;;1.42;1.33;;;;;;;20.30;56.25;93388.59;5028194;28;20045;-50
2022/08/02 07:25:18;;;;;;;1.25;1.10;;;;;;;20.39;56.75;93382.13;5024820;28;20021;-47
2022/08/02 07:27:44;;;;;;;0.75;0.75;;;;;;;20.69;53.92;93385.88;5028970;28;20056;-49
2022/08/02 07:30:10;;;;;;;1.02;0.80;;;;;;;20.89;52.39;93380.66;5028367;28;20033;-50
2022/08/02 07:32:35;;;;;;;0.90;0.80;;;;;;;21.15;51.82;93387.72;5027909;28;20493;-49
2022/08/02 07:35:01;;;;;;;3.60;0.63;;;;;;;21.58;53.70;93385.09;5023464;28;20034;-51
2022/08/02 07:37:29;;;;;;;0.98;0.63;;;;;;;22.19;50.45;93381.25;5027454;28;20033;-47
2022/08/02 07:39:54;;;;;;;0.57;0.57;;;;;;;23.08;46.39;93379.94;5028372;28;20033;-46
2022/08/02 07:42:20;;;;;;;23.05;1.83;;;;;;;24.01;44.52;93379.97;5028843;28;20556;-46
2022/08/02 07:44:46;;;;;;;4.75;0.70;;;;;;;25.01;42.79;93382.00;5030549;28;20489;-47
2022/08/02 07:47:11;;;;;;;2.40;0.73;;;;;;;25.97;40.73;93380.00;5030574;28;20048;-49
2022/08/02 07:49:37;;;;;;;0.60;0.57;;;;;;;26.99;38.07;93385.69;5030778;28;20026;-47
2022/08/02 07:52:03;;;;;;;0.63;0.63;;;;;;;27.67;36.18;93389.22;5030725;28;20083;-47
2022/08/02 07:54:29;;;;;;;1.15;0.93;;;;;;;28.35;34.54;93376.97;5030637;28;20100;-48
2022/08/02 07:56:55;;;;;;;1.83;0.70;;;;;;;28.38;34.75;93381.31;5030411;28;20025;-48
2022/08/02 07:59:21;;;;;;;0.50;0.50;;;;;;;27.77;34.50;93384.56;5030653;28;20044;-47
2022/08/02 08:01:48;;;;;;;2.60;0.82;;;;;;;26.89;36.85;93381.78;5029804;28;20065;-49
2022/08/02 08:04:17;;;;;;;0.68;0.68;;;;;;;26.62;38.14;93396.44;5031706;28;20025;-48
2022/08/02 08:06:42;;;;;;;1.20;1.08;;;;;;;27.15;37.38;93396.06;5029650;28;20029;-46
2022/08/02 08:09:11;;;;;;;0.75;0.63;;;;;;;27.50;36.86;93399.34;5030056;28;20036;-47
2022/08/02 08:11:36;;;;;;;2.30;0.60;;;;;;;28.07;35.33;93398.91;5027912;28;20060;-49
2022/08/02 08:14:03;;;;;;;0.52;0.52;;;;;;;28.46;36.12;93397.84;5029937;28;20037;-50
2022/08/02 08:16:29;;;;;;;1.45;0.70;;;;;;;28.58;33.64;93388.94;5017922;28;20037;-49
2022/08/02 08:18:55;;;;;;;2.35;0.63;;;;;;;28.35;34.65;93394.00;5031969;28;20079;-49
2022/08/02 08:21:45;;;;;;;0.85;0.52;;;;;;;28.43;35.65;93393.50;5031585;28;20079;-48
2022/08/02 08:24:11;;;;;;;3.13;0.60;;;;;;;28.94;35.83;93389.88;5031794;28;20411;-47
2022/08/02 08:26:38;;;;;;;12.27;1.35;;;;;;;29.26;33.33;93390.66;5031603;28;20032;-47
2022/08/02 08:29:05;;;;;;;4.10;1.17;;;;;;;29.43;33.86;93381.13;5028170;28;20029;-49
2022/08/02 08:31:30;;;;;;;1.73;0.70;;;;;;;29.62;31.97;93382.25;5024065;28;20418;-48
2022/08/02 08:33:56;;;;;;;0.60;0.52;;;;;;;30.01;32.97;93376.00;5031233;28;20044;-52
2022/08/02 08:36:21;;;;;;;0.68;0.68;;;;;;;30.21;32.93;93375.69;5031548;28;20103;-53
2022/08/02 08:38:48;;;;;;;0.50;0.50;;;;;;;30.79;31.58;93378.94;5030258;28;20017;-48
2022/08/02 08:41:18;;;;;;;1.67;0.50;;;;;;;30.81;31.40;93359.00;5030938;28;20025;-50
2022/08/02 08:43:44;;;;;;;1.05;0.70;;;;;;;30.96;30.05;93366.41;5020820;28;20029;-49
2022/08/02 08:46:10;;;;;;;0.90;0.70;;;;;;;30.50;30.88;93369.88;5019182;28;20517;-47
2022/08/02 08:48:40;;;;;;;1.40;0.70;;;;;;;29.68;32.42;93383.13;5025344;28;20040;-49
2022/08/02 08:51:15;;;;;;;0.75;0.70;;;;;;;29.47;32.78;93378.38;5030017;28;20116;-52
2022/08/02 08:53:47;;;;;;;2.50;0.82;;;;;;;29.70;32.11;93371.03;5030026;28;20052;-49
2022/08/02 08:56:15;;;;;;;2.58;1.52;;;;;;;29.73;31.15;93381.09;5030982;28;20104;-51
2022/08/02 08:58:41;;;;;;;1.92;1.10;;;;;;;29.31;31.25;93372.31;5030803;28;20095;-53
2022/08/02 09:01:35;;;;;;;0.80;0.80;;;;;;;29.60;30.74;93376.53;5019993;28;20033;-51
2022/08/02 09:04:01;;;;;;;2.58;0.82;;;;;;;29.77;31.34;93370.53;5020904;28;20038;-50
2022/08/02 09:06:27;;;;;;;0.90;0.90;;;;;;;30.07;29.89;93355.47;5024233;28;20112;-55
2022/08/02 09:08:52;;;;;;;2.00;0.77;;;;;;;31.00;32.23;93384.31;5030982;28;20029;-49
2022/08/02 09:11:22;;;;;;;0.85;0.75;;;;;;;31.88;28.99;93376.41;5029372;28;20422;-48
2022/08/02 09:13:56;;;;;;;4.35;0.70;;;;;;;31.51;28.68;93380.19;5030855;28;20022;-50
2022/08/02 09:16:36;;;;;;;0.65;0.65;;;;;;;30.70;29.17;93386.63;5030176;28;20037;-50
2022/08/02 09:19:22;;;;;;;0.70;0.70;;;;;;;29.87;31.37;93378.56;5030343;28;20088;-57
2022/08/02 09:21:49;;;;;;;1.65;0.90;;;;;;;30.24;31.33;93354.38;5029271;28;20495;-52
2022/08/02 09:24:20;;;;;;;1.88;0.80;;;;;;;30.78;31.35;93372.50;5030609;28;20051;-52
2022/08/02 09:26:46;;;;;;;6.25;0.80;;;;;;;31.72;28.98;93384.75;5029659;28;20029;-48
2022/08/02 09:29:12;;;;;;;4.25;0.80;;;;;;;31.52;29.05;93378.03;5014475;28;20029;-51
2022/08/02 09:31:37;;;;;;;3.90;0.80;;;;;;;31.40;29.71;93387.13;5029010;28;20113;-50
2022/08/02 09:34:03;;;;;;;0.60;0.60;;;;;;;30.94;29.53;93377.78;5029534;28;20029;-50
2022/08/02 09:36:43;;;;;;;2.20;0.80;;;;;;;30.25;31.24;93375.78;5029475;28;20483;-49
2022/08/02 09:39:11;;;;;;;0.57;0.57;;;;;;;29.33;32.71;93375.19;5027408;28;20026;-56
2022/08/02 09:41:42;;;;;;;2.00;0.70;;;;;;;29.71;31.89;93375.34;5029243;28;20021;-53
2022/08/02 09:44:17;;;;;;;2.30;0.82;;;;;;;31.21;29.62;93368.25;5028977;28;20014;-53
2022/08/02 09:46:44;;;;;;;0.70;0.70;;;;;;;33.27;27.11;93382.97;5026421;28;20494;-50
2022/08/02 09:49:17;;;;;;;0.70;0.70;;;;;;;33.42;26.65;93375.91;5029364;28;20028;-53
2022/08/02 09:51:45;;;;;;;0.70;0.70;;;;;;;32.54;28.08;93378.69;5027007;28;20052;-50
2022/08/02 09:54:15;;;;;;;0.93;0.68;;;;;;;31.35;29.27;93374.91;5030368;28;20029;-47
2022/08/02 09:56:50;;;;;;;0.93;0.88;;;;;;;31.05;29.79;93373.72;5024851;28;20026;-55
2022/08/02 09:59:18;;;;;;;0.80;0.80;;;;;;;31.60;30.63;93378.16;5019847;28;20026;-51
2022/08/02 10:01:45;;;;;;;1.02;0.68;;;;;;;31.33;28.23;93371.31;5029790;28;20404;-50
2022/08/02 10:04:12;;;;;;;0.80;0.80;;;;;;;30.29;30.67;93375.84;5030143;28;20457;-48
2022/08/02 10:06:38;;;;;;;0.68;0.68;;;;;;;29.07;31.62;93383.09;5030215;28;20417;-48
2022/08/02 10:09:07;;;;;;;0.68;0.68;;;;;;;28.58;34.38;93389.69;5029864;28;20024;-51
2022/08/02 10:11:34;;;;;;;1.02;0.70;;;;;;;28.01;34.61;93378.88;5029680;28;20026;-50
2022/08/02 10:14:02;;;;;;;0.88;0.88;;;;;;;27.64;34.82;93379.19;5029962;28;20034;-53
2022/08/02 10:16:28;;;;;;;4.47;1.03;;;;;;;27.36;34.76;93381.16;5029406;28;20100;-52
2022/08/02 10:18:55;;;;;;;43.67;20.88;;;;;;;27.30;36.24;93378.84;5029737;28;20556;-50
2022/08/02 10:21:29;;;;;;;1.75;1.65;;;;;;;28.15;35.79;93370.75;5029647;28;20030;-50
2022/08/02 10:24:16;;;;;;;1.48;0.80;;;;;;;29.34;33.36;93370.25;5030009;28;20078;-49
2022/08/02 10:26:44;;;;;;;3.15;1.25;;;;;;;29.34;32.87;93359.59;5029566;28;20037;-51
2022/08/02 10:29:10;;;;;;;0.93;0.70;;;;;;;28.83;33.10;93360.47;5029794;28;20025;-51
2022/08/02 10:32:20;;;;;;;0.88;0.88;;;;;;;28.30;32.60;93372.59;5029515;28;20495;-51
2022/08/02 10:34:50;;;;;;;1.63;1.52;;;;;;;27.93;34.03;93363.69;5021351;28;20045;-52
2022/08/02 10:37:16;;;;;;;2.15;1.95;;;;;;;27.73;35.12;93358.19;5012885;28;20037;-48
2022/08/02 10:39:44;;;;;;;3.45;0.95;;;;;;;29.05;35.10;93351.75;5009835;28;20022;-58
2022/08/02 10:42:10;;;;;;;0.85;0.85;;;;;;;29.51;31.59;93361.41;5022493;28;20017;-52
2022/08/02 10:44:36;;;;;;;4.43;3.63;;;;;;;28.90;34.51;93367.03;5015633;28;20030;-52
2022/08/02 10:47:13;;;;;;;1.55;1.45;;;;;;;29.66;31.27;93360.31;5029530;28;20033;-60
2022/08/02 10:49:59;;;;;;;2.88;2.67;;;;;;;31.35;31.54;93368.47;5029678;28;20048;-50
2022/08/02 10:52:28;;;;;;;6.72;1.50;;;;;;;32.61;28.92;93351.59;5027973;28;20116;-56
2022/08/02 10:54:56;;;;;;;0.93;0.93;;;;;;;33.52;27.87;93367.44;5029647;28;20032;-61
2022/08/02 10:57:33;;;;;;;0.95;0.90;;;;;;;32.73;26.12;93355.28;5029465;28;20495;-60
2022/08/02 11:00:23;;;;;;;1.17;0.80;;;;;;;31.56;28.78;93375.22;5022456;28;20025;-60
2022/08/02 11:02:49;;;;;;;1.02;0.93;;;;;;;30.35;30.68;93356.03;5029286;28;20037;-59
2022/08/02 11:05:26;;;;;;;1.73;0.80;;;;;;;30.44;31.19;93354.78;5022137;28;20522;-60
2022/08/02 11:07:52;;;;;;;0.80;0.80;;;;;;;31.82;30.16;93376.31;5014178;28;20026;-58
2022/08/02 11:10:29;;;;;;;1.30;1.20;;;;;;;32.84;28.02;93371.13;5025985;28;20517;-59
2022/08/02 11:13:03;;;;;;;1.08;0.50;;;;;;;33.90;27.20;93372.69;5032938;28;20025;-59
2022/08/02 11:15:29;;;;;;;0.70;0.70;;;;;;;34.61;25.56;93350.81;5021402;28;20045;-59
2022/08/02 11:17:57;;;;;;;0.63;0.63;;;;;;;35.43;23.66;93353.75;5013686;28;20025;-59
2022/08/02 11:20:25;;;;;;;1.02;0.80;;;;;;;35.78;23.54;93360.94;5022494;28;20064;-59
2022/08/02 11:22:52;;;;;;;0.70;0.70;;;;;;;35.97;23.44;93361.66;5012749;28;20499;-61
2022/08/02 11:25:23;;;;;;;1.58;1.15;;;;;;;35.66;22.40;93360.97;5028984;28;20033;-61
2022/08/02 11:27:56;;;;;;;0.80;0.80;;;;;;;34.22;24.27;93370.00;5028417;28;20037;-61
2022/08/02 11:30:23;;;;;;;0.93;0.90;;;;;;;32.58;27.03;93362.28;5030816;28;20032;-59
2022/08/02 11:32:49;;;;;;;1.40;1.30;;;;;;;31.55;28.93;93371.66;5028038;28;20032;-59
2022/08/02 11:35:14;;;;;;;2.40;2.20;;;;;;;30.87;30.33;93368.41;5031018;28;20018;-59
2022/08/02 11:37:42;;;;;;;3.20;2.90;;;;;;;31.04;29.87;93355.88;5030649;28;20032;-59
2022/08/02 11:40:09;;;;;;;2.15;1.95;;;;;;;31.00;30.03;93358.66;5031260;28;20025;-59